sensor_id;sensor_type;location;lat;lon;timestamp;P1;durP1;ratioP1;P2;durP2;ratioP2
66593;SDS011;53450;42.584;23.366;2023-03-01T00:02:12;3.70;;;3.40;;
66593;SDS011;53450;42.584;23.366;2023-03-01T00:04:38;3.37;;;3.07;;
66593;SDS011;53450;42.584;23.366;2023-03-01T00:07:04;3.27;;;3.07;;
66593;SDS011;53450;42.584;23.366;2023-03-01T00:09:29;3.20;;;2.90;;
66593;SDS011;53450;42.584;23.366;2023-03-01T00:11:55;3.10;;;2.90;;
66593;SDS011;53450;42.584;23.366;2023-03-01T00:14:20;3.43;;;3.13;;
66593;SDS011;53450;42.584;23.366;2023-03-01T00:16:46;4.40;;;3.40;;
66593;SDS011;53450;42.584;23.366;2023-03-01T00:19:18;3.40;;;3.10;;
66593;SDS011;53450;42.584;23.366;2023-03-01T00:21:44;3.40;;;3.10;;
66593;SDS011;53450;42.584;23.366;2023-03-01T00:24:11;3.60;;;3.30;;
66593;SDS011;53450;42.584;23.366;2023-03-01T00:26:37;3.67;;;3.37;;
66593;SDS011;53450;42.584;23.366;2023-03-01T00:29:02;3.30;;;3.10;;
66593;SDS011;53450;42.584;23.366;2023-03-01T00:31:29;3.67;;;3.37;;
66593;SDS011;53450;42.584;23.366;2023-03-01T00:33:57;4.10;;;3.60;;
66593;SDS011;53450;42.584;23.366;2023-03-01T00:36:25;3.33;;;3.00;;
66593;SDS011;53450;42.584;23.366;2023-03-01T00:38:52;3.40;;;3.10;;
66593;SDS011;53450;42.584;23.366;2023-03-01T00:41:19;2.90;;;2.70;;
66593;SDS011;53450;42.584;23.366;2023-03-01T00:43:45;6.50;;;3.20;;
66593;SDS011;53450;42.584;23.366;2023-03-01T00:46:15;2.40;;;2.20;;
66593;SDS011;53450;42.584;23.366;2023-03-01T00:48:42;2.55;;;2.35;;
66593;SDS011;53450;42.584;23.366;2023-03-01T00:51:10;1.80;;;1.70;;
66593;SDS011;53450;42.584;23.366;2023-03-01T00:53:37;1.80;;;1.70;;
66593;SDS011;53450;42.584;23.366;2023-03-01T00:56:04;1.40;;;1.40;;
66593;SDS011;53450;42.584;23.366;2023-03-01T00:58:31;1.70;;;1.60;;
66593;SDS011;53450;42.584;23.366;2023-03-01T01:00:57;1.50;;;1.50;;
66593;SDS011;53450;42.584;23.366;2023-03-01T01:03:23;1.40;;;1.30;;
66593;SDS011;53450;42.584;23.366;2023-03-01T01:05:52;1.77;;;1.67;;
66593;SDS011;53450;42.584;23.366;2023-03-01T01:08:18;1.80;;;1.70;;
66593;SDS011;53450;42.584;23.366;2023-03-01T01:10:45;1.50;;;1.50;;
66593;SDS011;53450;42.584;23.366;2023-03-01T01:13:11;1.30;;;1.30;;
66593;SDS011;53450;42.584;23.366;2023-03-01T01:15:37;1.50;;;1.40;;
66593;SDS011;53450;42.584;23.366;2023-03-01T01:18:03;1.50;;;1.40;;
66593;SDS011;53450;42.584;23.366;2023-03-01T01:20:28;1.40;;;1.40;;
66593;SDS011;53450;42.584;23.366;2023-03-01T01:22:54;1.40;;;1.40;;
66593;SDS011;53450;42.584;23.366;2023-03-01T01:25:20;2.57;;;1.40;;
66593;SDS011;53450;42.584;23.366;2023-03-01T01:27:45;1.60;;;1.50;;
66593;SDS011;53450;42.584;23.366;2023-03-01T01:30:11;1.33;;;1.33;;
66593;SDS011;53450;42.584;23.366;2023-03-01T01:32:38;1.50;;;1.50;;
66593;SDS011;53450;42.584;23.366;2023-03-01T01:35:04;1.90;;;1.80;;
66593;SDS011;53450;42.584;23.366;2023-03-01T01:37:30;1.70;;;1.60;;
66593;SDS011;53450;42.584;23.366;2023-03-01T01:39:58;1.30;;;1.30;;
66593;SDS011;53450;42.584;23.366;2023-03-01T01:42:25;1.30;;;1.30;;
66593;SDS011;53450;42.584;23.366;2023-03-01T01:47:56;2.70;;;1.30;;
66593;SDS011;53450;42.584;23.366;2023-03-01T01:50:28;1.77;;;1.67;;
66593;SDS011;53450;42.584;23.366;2023-03-01T01:53:04;1.43;;;1.43;;
66593;SDS011;53450;42.584;23.366;2023-03-01T01:55:31;1.80;;;1.70;;
66593;SDS011;53450;42.584;23.366;2023-03-01T01:57:58;1.37;;;1.37;;
66593;SDS011;53450;42.584;23.366;2023-03-01T02:00:28;1.70;;;1.60;;
66593;SDS011;53450;42.584;23.366;2023-03-01T02:02:56;1.43;;;1.33;;
66593;SDS011;53450;42.584;23.366;2023-03-01T02:05:47;1.60;;;1.50;;
66593;SDS011;53450;42.584;23.366;2023-03-01T02:08:44;2.60;;;2.17;;
66593;SDS011;53450;42.584;23.366;2023-03-01T02:11:18;2.17;;;1.97;;
66593;SDS011;53450;42.584;23.366;2023-03-01T02:13:47;1.93;;;1.73;;
66593;SDS011;53450;42.584;23.366;2023-03-01T02:16:14;1.60;;;1.50;;
66593;SDS011;53450;42.584;23.366;2023-03-01T02:18:42;2.03;;;1.93;;
66593;SDS011;53450;42.584;23.366;2023-03-01T02:21:15;2.50;;;2.40;;
66593;SDS011;53450;42.584;23.366;2023-03-01T02:23:53;2.20;;;2.10;;
66593;SDS011;53450;42.584;23.366;2023-03-01T02:29:10;3.13;;;2.87;;
66593;SDS011;53450;42.584;23.366;2023-03-01T02:31:35;3.10;;;2.80;;
66593;SDS011;53450;42.584;23.366;2023-03-01T02:36:36;4.63;;;3.37;;
66593;SDS011;53450;42.584;23.366;2023-03-01T02:39:32;3.80;;;3.40;;
66593;SDS011;53450;42.584;23.366;2023-03-01T02:42:02;3.20;;;2.90;;
66593;SDS011;53450;42.584;23.366;2023-03-01T02:44:29;3.40;;;3.10;;
66593;SDS011;53450;42.584;23.366;2023-03-01T02:46:55;2.97;;;2.77;;
66593;SDS011;53450;42.584;23.366;2023-03-01T02:49:29;4.07;;;3.57;;
66593;SDS011;53450;42.584;23.366;2023-03-01T02:54:31;3.85;;;3.55;;
66593;SDS011;53450;42.584;23.366;2023-03-01T02:57:32;4.23;;;3.83;;
66593;SDS011;53450;42.584;23.366;2023-03-01T03:00:26;4.13;;;3.50;;
66593;SDS011;53450;42.584;23.366;2023-03-01T03:02:55;3.90;;;3.60;;
66593;SDS011;53450;42.584;23.366;2023-03-01T03:05:24;4.37;;;3.97;;
66593;SDS011;53450;42.584;23.366;2023-03-01T03:07:56;4.40;;;4.00;;
66593;SDS011;53450;42.584;23.366;2023-03-01T03:10:26;6.83;;;4.13;;
66593;SDS011;53450;42.584;23.366;2023-03-01T03:12:54;5.70;;;3.77;;
66593;SDS011;53450;42.584;23.366;2023-03-01T03:15:25;4.68;;;4.10;;
66593;SDS011;53450;42.584;23.366;2023-03-01T03:17:52;4.33;;;3.87;;
66593;SDS011;53450;42.584;23.366;2023-03-01T03:20:19;5.27;;;4.20;;
66593;SDS011;53450;42.584;23.366;2023-03-01T03:22:47;3.40;;;3.10;;
66593;SDS011;53450;42.584;23.366;2023-03-01T03:25:16;4.23;;;3.60;;
66593;SDS011;53450;42.584;23.366;2023-03-01T03:27:43;4.97;;;3.83;;
66593;SDS011;53450;42.584;23.366;2023-03-01T03:30:18;3.93;;;3.57;;
66593;SDS011;53450;42.584;23.366;2023-03-01T03:32:45;5.13;;;3.00;;
66593;SDS011;53450;42.584;23.366;2023-03-01T03:35:21;4.03;;;3.63;;
66593;SDS011;53450;42.584;23.366;2023-03-01T03:38:15;3.47;;;3.17;;
66593;SDS011;53450;42.584;23.366;2023-03-01T03:43:11;2.90;;;2.70;;
66593;SDS011;53450;42.584;23.366;2023-03-01T03:45:38;3.40;;;3.10;;
66593;SDS011;53450;42.584;23.366;2023-03-01T03:48:05;3.03;;;2.83;;
66593;SDS011;53450;42.584;23.366;2023-03-01T03:50:32;3.23;;;3.03;;
66593;SDS011;53450;42.584;23.366;2023-03-01T03:53:02;5.10;;;3.47;;
66593;SDS011;53450;42.584;23.366;2023-03-01T03:55:30;3.40;;;3.10;;
66593;SDS011;53450;42.584;23.366;2023-03-01T03:58:00;3.50;;;3.20;;
66593;SDS011;53450;42.584;23.366;2023-03-01T04:00:32;5.17;;;3.40;;
66593;SDS011;53450;42.584;23.366;2023-03-01T04:03:02;3.10;;;2.80;;
66593;SDS011;53450;42.584;23.366;2023-03-01T04:05:28;5.30;;;2.93;;
66593;SDS011;53450;42.584;23.366;2023-03-01T04:07:54;4.17;;;3.47;;
66593;SDS011;53450;42.584;23.366;2023-03-01T04:10:27;4.00;;;3.10;;
66593;SDS011;53450;42.584;23.366;2023-03-01T04:12:57;3.30;;;3.00;;
66593;SDS011;53450;42.584;23.366;2023-03-01T04:15:23;2.73;;;2.53;;
66593;SDS011;53450;42.584;23.366;2023-03-01T04:17:51;4.10;;;3.03;;
66593;SDS011;53450;42.584;23.366;2023-03-01T04:20:19;2.80;;;2.50;;
66593;SDS011;53450;42.584;23.366;2023-03-01T04:22:50;2.80;;;2.60;;
66593;SDS011;53450;42.584;23.366;2023-03-01T04:25:24;2.73;;;2.53;;
66593;SDS011;53450;42.584;23.366;2023-03-01T04:27:51;3.23;;;2.80;;
66593;SDS011;53450;42.584;23.366;2023-03-01T04:30:16;2.90;;;2.60;;
66593;SDS011;53450;42.584;23.366;2023-03-01T04:32:45;3.40;;;3.10;;
66593;SDS011;53450;42.584;23.366;2023-03-01T04:35:10;3.83;;;3.20;;
66593;SDS011;53450;42.584;23.366;2023-03-01T04:37:36;3.50;;;2.93;;
66593;SDS011;53450;42.584;23.366;2023-03-01T04:40:26;3.30;;;2.60;;
66593;SDS011;53450;42.584;23.366;2023-03-01T04:43:18;3.25;;;2.60;;
66593;SDS011;53450;42.584;23.366;2023-03-01T04:45:43;3.33;;;2.60;;
66593;SDS011;53450;42.584;23.366;2023-03-01T04:48:09;7.90;;;3.70;;
66593;SDS011;53450;42.584;23.366;2023-03-01T04:50:34;8.07;;;3.10;;
66593;SDS011;53450;42.584;23.366;2023-03-01T04:53:00;2.30;;;2.10;;
66593;SDS011;53450;42.584;23.366;2023-03-01T04:55:26;3.53;;;2.67;;
66593;SDS011;53450;42.584;23.366;2023-03-01T04:57:53;2.10;;;2.00;;
66593;SDS011;53450;42.584;23.366;2023-03-01T05:00:19;2.70;;;2.50;;
66593;SDS011;53450;42.584;23.366;2023-03-01T05:02:46;2.33;;;2.23;;
66593;SDS011;53450;42.584;23.366;2023-03-01T05:05:13;2.30;;;2.10;;
66593;SDS011;53450;42.584;23.366;2023-03-01T05:07:39;2.10;;;2.00;;
66593;SDS011;53450;42.584;23.366;2023-03-01T05:10:05;4.17;;;2.60;;
66593;SDS011;53450;42.584;23.366;2023-03-01T05:12:31;2.10;;;1.93;;
66593;SDS011;53450;42.584;23.366;2023-03-01T05:14:56;1.83;;;1.73;;
66593;SDS011;53450;42.584;23.366;2023-03-01T05:17:23;2.57;;;2.30;;
66593;SDS011;53450;42.584;23.366;2023-03-01T05:19:49;4.40;;;2.23;;
66593;SDS011;53450;42.584;23.366;2023-03-01T05:22:15;2.10;;;1.80;;
66593;SDS011;53450;42.584;23.366;2023-03-01T05:24:41;2.27;;;2.17;;
66593;SDS011;53450;42.584;23.366;2023-03-01T05:27:07;3.93;;;2.40;;
66593;SDS011;53450;42.584;23.366;2023-03-01T05:29:33;2.77;;;2.53;;
66593;SDS011;53450;42.584;23.366;2023-03-01T05:32:02;3.70;;;3.40;;
66593;SDS011;53450;42.584;23.366;2023-03-01T05:34:29;3.27;;;2.93;;
66593;SDS011;53450;42.584;23.366;2023-03-01T05:36:56;2.70;;;2.50;;
66593;SDS011;53450;42.584;23.366;2023-03-01T05:39:23;1.63;;;1.53;;
66593;SDS011;53450;42.584;23.366;2023-03-01T05:41:58;2.20;;;1.80;;
66593;SDS011;53450;42.584;23.366;2023-03-01T05:44:49;1.57;;;1.47;;
66593;SDS011;53450;42.584;23.366;2023-03-01T05:47:15;1.43;;;1.40;;
66593;SDS011;53450;42.584;23.366;2023-03-01T05:49:40;1.20;;;1.20;;
66593;SDS011;53450;42.584;23.366;2023-03-01T05:52:06;1.50;;;1.40;;
66593;SDS011;53450;42.584;23.366;2023-03-01T05:54:32;1.70;;;1.60;;
66593;SDS011;53450;42.584;23.366;2023-03-01T05:56:58;1.33;;;1.33;;
66593;SDS011;53450;42.584;23.366;2023-03-01T05:59:24;1.70;;;1.60;;
66593;SDS011;53450;42.584;23.366;2023-03-01T06:01:49;3.73;;;2.57;;
66593;SDS011;53450;42.584;23.366;2023-03-01T06:04:40;1.45;;;1.38;;
66593;SDS011;53450;42.584;23.366;2023-03-01T06:07:32;2.07;;;1.93;;
66593;SDS011;53450;42.584;23.366;2023-03-01T06:09:57;1.83;;;1.73;;
66593;SDS011;53450;42.584;23.366;2023-03-01T06:12:23;5.30;;;3.00;;
66593;SDS011;53450;42.584;23.366;2023-03-01T06:14:48;4.23;;;3.80;;
66593;SDS011;53450;42.584;23.366;2023-03-01T06:17:14;1.70;;;1.60;;
66593;SDS011;53450;42.584;23.366;2023-03-01T06:19:39;3.37;;;3.07;;
66593;SDS011;53450;42.584;23.366;2023-03-01T06:22:05;3.43;;;3.13;;
66593;SDS011;53450;42.584;23.366;2023-03-01T06:24:30;2.83;;;2.50;;
66593;SDS011;53450;42.584;23.366;2023-03-01T06:26:56;6.90;;;5.00;;
66593;SDS011;53450;42.584;23.366;2023-03-01T06:29:22;4.10;;;3.57;;
66593;SDS011;53450;42.584;23.366;2023-03-01T06:31:48;6.77;;;4.90;;
66593;SDS011;53450;42.584;23.366;2023-03-01T06:34:14;9.70;;;5.87;;
66593;SDS011;53450;42.584;23.366;2023-03-01T06:36:40;3.40;;;3.10;;
66593;SDS011;53450;42.584;23.366;2023-03-01T06:39:06;3.33;;;3.03;;
66593;SDS011;53450;42.584;23.366;2023-03-01T06:41:32;4.57;;;2.53;;
66593;SDS011;53450;42.584;23.366;2023-03-01T06:43:59;2.70;;;2.50;;
66593;SDS011;53450;42.584;23.366;2023-03-01T06:46:24;4.57;;;3.70;;
66593;SDS011;53450;42.584;23.366;2023-03-01T06:48:50;9.77;;;7.03;;
66593;SDS011;53450;42.584;23.366;2023-03-01T06:51:18;3.50;;;3.20;;
66593;SDS011;53450;42.584;23.366;2023-03-01T06:53:46;3.63;;;2.77;;
66593;SDS011;53450;42.584;23.366;2023-03-01T06:56:12;2.33;;;2.13;;
66593;SDS011;53450;42.584;23.366;2023-03-01T06:58:37;5.87;;;3.53;;
66593;SDS011;53450;42.584;23.366;2023-03-01T07:01:06;9.17;;;4.20;;
66593;SDS011;53450;42.584;23.366;2023-03-01T07:03:32;2.90;;;2.60;;
66593;SDS011;53450;42.584;23.366;2023-03-01T07:05:58;3.17;;;2.87;;
66593;SDS011;53450;42.584;23.366;2023-03-01T07:08:24;2.77;;;2.50;;
66593;SDS011;53450;42.584;23.366;2023-03-01T07:10:54;3.13;;;2.47;;
66593;SDS011;53450;42.584;23.366;2023-03-01T07:13:21;2.67;;;2.08;;
66593;SDS011;53450;42.584;23.366;2023-03-01T07:15:46;3.50;;;2.87;;
66593;SDS011;53450;42.584;23.366;2023-03-01T07:18:12;15.43;;;4.30;;
66593;SDS011;53450;42.584;23.366;2023-03-01T07:20:37;4.27;;;3.27;;
66593;SDS011;53450;42.584;23.366;2023-03-01T07:23:03;6.33;;;4.27;;
66593;SDS011;53450;42.584;23.366;2023-03-01T07:25:31;9.13;;;4.20;;
66593;SDS011;53450;42.584;23.366;2023-03-01T07:28:22;5.50;;;3.33;;
66593;SDS011;53450;42.584;23.366;2023-03-01T07:30:48;6.77;;;3.20;;
66593;SDS011;53450;42.584;23.366;2023-03-01T07:33:14;3.13;;;2.83;;
66593;SDS011;53450;42.584;23.366;2023-03-01T07:35:39;4.27;;;3.20;;
66593;SDS011;53450;42.584;23.366;2023-03-01T07:38:05;4.13;;;3.00;;
66593;SDS011;53450;42.584;23.366;2023-03-01T07:40:31;43.13;;;28.50;;
66593;SDS011;53450;42.584;23.366;2023-03-01T07:42:56;154.10;;;64.77;;
66593;SDS011;53450;42.584;23.366;2023-03-01T07:45:23;17.67;;;14.10;;
66593;SDS011;53450;42.584;23.366;2023-03-01T07:47:51;8.80;;;4.10;;
66593;SDS011;53450;42.584;23.366;2023-03-01T07:50:18;10.90;;;7.37;;
66593;SDS011;53450;42.584;23.366;2023-03-01T07:52:47;21.03;;;10.53;;
66593;SDS011;53450;42.584;23.366;2023-03-01T07:55:14;3.60;;;2.00;;
66593;SDS011;53450;42.584;23.366;2023-03-01T07:57:41;4.53;;;3.40;;
66593;SDS011;53450;42.584;23.366;2023-03-01T08:00:07;9.73;;;5.23;;
66593;SDS011;53450;42.584;23.366;2023-03-01T08:02:38;17.75;;;10.27;;
66593;SDS011;53450;42.584;23.366;2023-03-01T08:05:05;11.83;;;6.53;;
66593;SDS011;53450;42.584;23.366;2023-03-01T08:07:31;3.67;;;3.10;;
66593;SDS011;53450;42.584;23.366;2023-03-01T08:09:57;4.43;;;2.63;;
66593;SDS011;53450;42.584;23.366;2023-03-01T08:12:23;5.33;;;4.43;;
66593;SDS011;53450;42.584;23.366;2023-03-01T08:14:49;4.13;;;2.93;;
66593;SDS011;53450;42.584;23.366;2023-03-01T08:17:14;5.13;;;3.60;;
66593;SDS011;53450;42.584;23.366;2023-03-01T08:19:40;2.60;;;2.23;;
66593;SDS011;53450;42.584;23.366;2023-03-01T08:22:05;6.43;;;3.77;;
66593;SDS011;53450;42.584;23.366;2023-03-01T08:24:31;4.23;;;3.37;;
66593;SDS011;53450;42.584;23.366;2023-03-01T08:26:57;7.17;;;3.07;;
66593;SDS011;53450;42.584;23.366;2023-03-01T08:29:22;3.70;;;3.40;;
66593;SDS011;53450;42.584;23.366;2023-03-01T08:31:50;6.57;;;3.47;;
66593;SDS011;53450;42.584;23.366;2023-03-01T08:34:16;2.93;;;2.33;;
66593;SDS011;53450;42.584;23.366;2023-03-01T08:36:44;4.17;;;3.33;;
66593;SDS011;53450;42.584;23.366;2023-03-01T08:39:12;4.90;;;3.97;;
66593;SDS011;53450;42.584;23.366;2023-03-01T08:41:39;4.50;;;3.40;;
66593;SDS011;53450;42.584;23.366;2023-03-01T08:44:05;6.07;;;3.97;;
66593;SDS011;53450;42.584;23.366;2023-03-01T08:46:32;9.60;;;4.70;;
66593;SDS011;53450;42.584;23.366;2023-03-01T08:49:06;3.67;;;3.37;;
66593;SDS011;53450;42.584;23.366;2023-03-01T08:51:33;5.07;;;3.27;;
66593;SDS011;53450;42.584;23.366;2023-03-01T08:54:05;7.10;;;4.57;;
66593;SDS011;53450;42.584;23.366;2023-03-01T08:56:32;3.35;;;3.08;;
66593;SDS011;53450;42.584;23.366;2023-03-01T08:58:58;4.63;;;3.23;;
66593;SDS011;53450;42.584;23.366;2023-03-01T09:01:24;5.40;;;4.90;;
66593;SDS011;53450;42.584;23.366;2023-03-01T09:04:16;9.90;;;6.95;;
66593;SDS011;53450;42.584;23.366;2023-03-01T09:06:44;3.70;;;3.20;;
66593;SDS011;53450;42.584;23.366;2023-03-01T09:09:15;2.90;;;2.70;;
66593;SDS011;53450;42.584;23.366;2023-03-01T09:11:42;5.93;;;3.77;;
66593;SDS011;53450;42.584;23.366;2023-03-01T09:14:11;3.70;;;3.00;;
66593;SDS011;53450;42.584;23.366;2023-03-01T09:16:38;9.00;;;5.47;;
66593;SDS011;53450;42.584;23.366;2023-03-01T09:19:04;4.47;;;3.03;;
66593;SDS011;53450;42.584;23.366;2023-03-01T09:21:30;5.90;;;5.07;;
66593;SDS011;53450;42.584;23.366;2023-03-01T09:23:56;14.63;;;10.57;;
66593;SDS011;53450;42.584;23.366;2023-03-01T09:26:23;11.57;;;10.37;;
66593;SDS011;53450;42.584;23.366;2023-03-01T09:28:50;3.30;;;3.00;;
66593;SDS011;53450;42.584;23.366;2023-03-01T09:31:18;9.00;;;7.13;;
66593;SDS011;53450;42.584;23.366;2023-03-01T09:33:48;3.30;;;3.00;;
66593;SDS011;53450;42.584;23.366;2023-03-01T09:36:17;4.28;;;3.63;;
66593;SDS011;53450;42.584;23.366;2023-03-01T09:38:46;6.40;;;5.77;;
66593;SDS011;53450;42.584;23.366;2023-03-01T09:43:57;8.60;;;7.70;;
66593;SDS011;53450;42.584;23.366;2023-03-01T09:46:40;5.37;;;4.20;;
66593;SDS011;53450;42.584;23.366;2023-03-01T09:49:18;5.07;;;3.80;;
66593;SDS011;53450;42.584;23.366;2023-03-01T09:54:46;7.93;;;6.53;;
66593;SDS011;53450;42.584;23.366;2023-03-01T09:57:28;4.53;;;4.13;;
66593;SDS011;53450;42.584;23.366;2023-03-01T10:02:52;6.47;;;4.30;;
66593;SDS011;53450;42.584;23.366;2023-03-01T10:08:38;4.77;;;4.33;;
66593;SDS011;53450;42.584;23.366;2023-03-01T10:13:58;9.10;;;5.63;;
66593;SDS011;53450;42.584;23.366;2023-03-01T10:19:54;5.50;;;4.37;;
66593;SDS011;53450;42.584;23.366;2023-03-01T10:22:27;3.60;;;3.20;;
66593;SDS011;53450;42.584;23.366;2023-03-01T10:24:56;5.67;;;4.23;;
66593;SDS011;53450;42.584;23.366;2023-03-01T10:32:38;4.73;;;4.03;;
66593;SDS011;53450;42.584;23.366;2023-03-01T10:40:31;5.67;;;3.80;;
66593;SDS011;53450;42.584;23.366;2023-03-01T10:42:58;9.10;;;7.40;;
66593;SDS011;53450;42.584;23.366;2023-03-01T10:50:49;46.50;;;24.97;;
66593;SDS011;53450;42.584;23.366;2023-03-01T10:53:21;71.13;;;42.80;;
66593;SDS011;53450;42.584;23.366;2023-03-01T10:55:49;35.73;;;20.90;;
66593;SDS011;53450;42.584;23.366;2023-03-01T10:58:58;35.97;;;21.70;;
66593;SDS011;53450;42.584;23.366;2023-03-01T11:01:29;14.07;;;9.93;;
66593;SDS011;53450;42.584;23.366;2023-03-01T11:04:17;9.93;;;6.90;;
66593;SDS011;53450;42.584;23.366;2023-03-01T11:06:43;4.33;;;3.63;;
66593;SDS011;53450;42.584;23.366;2023-03-01T11:09:16;9.77;;;6.00;;
66593;SDS011;53450;42.584;23.366;2023-03-01T11:11:43;10.47;;;5.97;;
66593;SDS011;53450;42.584;23.366;2023-03-01T11:14:16;6.73;;;4.83;;
66593;SDS011;53450;42.584;23.366;2023-03-01T11:16:46;8.70;;;5.97;;
66593;SDS011;53450;42.584;23.366;2023-03-01T11:19:18;7.68;;;5.75;;
66593;SDS011;53450;42.584;23.366;2023-03-01T11:24:46;5.20;;;4.70;;
66593;SDS011;53450;42.584;23.366;2023-03-01T11:27:26;4.77;;;3.90;;
66593;SDS011;53450;42.584;23.366;2023-03-01T11:33:46;11.00;;;7.07;;
66593;SDS011;53450;42.584;23.366;2023-03-01T11:38:40;4.40;;;3.97;;
66593;SDS011;53450;42.584;23.366;2023-03-01T11:41:10;12.40;;;7.57;;
66593;SDS011;53450;42.584;23.366;2023-03-01T11:43:54;9.17;;;5.33;;
66593;SDS011;53450;42.584;23.366;2023-03-01T11:46:58;10.20;;;6.83;;
66593;SDS011;53450;42.584;23.366;2023-03-01T11:52:20;9.50;;;6.85;;
66593;SDS011;53450;42.584;23.366;2023-03-01T11:55:12;6.43;;;4.57;;
66593;SDS011;53450;42.584;23.366;2023-03-01T12:08:26;4.73;;;4.33;;
66593;SDS011;53450;42.584;23.366;2023-03-01T12:14:23;4.70;;;4.23;;
66593;SDS011;53450;42.584;23.366;2023-03-01T12:25:33;5.23;;;4.00;;
66593;SDS011;53450;42.584;23.366;2023-03-01T12:31:05;4.57;;;4.17;;
66593;SDS011;53450;42.584;23.366;2023-03-01T12:36:49;10.63;;;6.23;;
66593;SDS011;53450;42.584;23.366;2023-03-01T12:43:06;10.27;;;6.80;;
66593;SDS011;53450;42.584;23.366;2023-03-01T12:46:07;17.57;;;8.77;;
66593;SDS011;53450;42.584;23.366;2023-03-01T12:51:28;15.20;;;10.03;;
66593;SDS011;53450;42.584;23.366;2023-03-01T12:53:57;4.73;;;3.97;;
66593;SDS011;53450;42.584;23.366;2023-03-01T12:56:28;5.80;;;4.70;;
66593;SDS011;53450;42.584;23.366;2023-03-01T13:01:51;5.63;;;5.03;;
66593;SDS011;53450;42.584;23.366;2023-03-01T13:04:53;5.50;;;5.00;;
66593;SDS011;53450;42.584;23.366;2023-03-01T13:11:04;6.07;;;4.53;;
66593;SDS011;53450;42.584;23.366;2023-03-01T13:13:35;4.82;;;4.22;;
66593;SDS011;53450;42.584;23.366;2023-03-01T13:16:20;6.40;;;4.80;;
66593;SDS011;53450;42.584;23.366;2023-03-01T13:19:14;8.93;;;7.83;;
66593;SDS011;53450;42.584;23.366;2023-03-01T13:21:42;5.57;;;4.97;;
66593;SDS011;53450;42.584;23.366;2023-03-01T13:35:53;5.17;;;3.70;;
66593;SDS011;53450;42.584;23.366;2023-03-01T13:41:15;6.40;;;4.63;;
66593;SDS011;53450;42.584;23.366;2023-03-01T13:44:01;4.73;;;4.17;;
66593;SDS011;53450;42.584;23.366;2023-03-01T13:46:29;3.87;;;3.57;;
66593;SDS011;53450;42.584;23.366;2023-03-01T13:48:55;7.37;;;5.40;;
66593;SDS011;53450;42.584;23.366;2023-03-01T13:51:47;6.47;;;5.00;;
66593;SDS011;53450;42.584;23.366;2023-03-01T13:54:47;9.10;;;6.40;;
66593;SDS011;53450;42.584;23.366;2023-03-01T13:57:15;14.73;;;6.57;;
66593;SDS011;53450;42.584;23.366;2023-03-01T13:59:47;9.17;;;7.83;;
66593;SDS011;53450;42.584;23.366;2023-03-01T14:02:13;11.63;;;8.27;;
66593;SDS011;53450;42.584;23.366;2023-03-01T14:04:43;8.80;;;6.43;;
66593;SDS011;53450;42.584;23.366;2023-03-01T14:07:12;7.55;;;6.35;;
66593;SDS011;53450;42.584;23.366;2023-03-01T14:10:07;5.70;;;4.80;;
66593;SDS011;53450;42.584;23.366;2023-03-01T14:12:50;9.57;;;5.93;;
66593;SDS011;53450;42.584;23.366;2023-03-01T14:15:19;11.60;;;9.13;;
66593;SDS011;53450;42.584;23.366;2023-03-01T14:18:19;6.07;;;4.90;;
66593;SDS011;53450;42.584;23.366;2023-03-01T14:20:54;17.97;;;11.53;;
66593;SDS011;53450;42.584;23.366;2023-03-01T14:23:21;10.07;;;7.03;;
66593;SDS011;53450;42.584;23.366;2023-03-01T14:25:52;19.90;;;11.83;;
66593;SDS011;53450;42.584;23.366;2023-03-01T14:28:24;31.55;;;13.82;;
66593;SDS011;53450;42.584;23.366;2023-03-01T14:30:58;31.17;;;13.15;;
66593;SDS011;53450;42.584;23.366;2023-03-01T14:36:32;16.43;;;10.73;;
66593;SDS011;53450;42.584;23.366;2023-03-01T14:38:59;23.50;;;14.63;;
66593;SDS011;53450;42.584;23.366;2023-03-01T14:41:31;9.27;;;6.33;;
66593;SDS011;53450;42.584;23.366;2023-03-01T14:44:01;13.77;;;8.90;;
66593;SDS011;53450;42.584;23.366;2023-03-01T14:46:34;8.40;;;5.83;;
66593;SDS011;53450;42.584;23.366;2023-03-01T14:49:12;14.73;;;8.60;;
66593;SDS011;53450;42.584;23.366;2023-03-01T14:51:41;15.43;;;9.53;;
66593;SDS011;53450;42.584;23.366;2023-03-01T14:54:21;9.80;;;7.80;;
66593;SDS011;53450;42.584;23.366;2023-03-01T14:56:49;9.73;;;7.00;;
66593;SDS011;53450;42.584;23.366;2023-03-01T14:59:15;11.03;;;7.00;;
66593;SDS011;53450;42.584;23.366;2023-03-01T15:01:46;13.83;;;8.40;;
66593;SDS011;53450;42.584;23.366;2023-03-01T15:04:13;10.00;;;7.90;;
66593;SDS011;53450;42.584;23.366;2023-03-01T15:06:39;8.50;;;6.70;;
66593;SDS011;53450;42.584;23.366;2023-03-01T15:09:32;16.17;;;10.40;;
66593;SDS011;53450;42.584;23.366;2023-03-01T15:12:23;8.73;;;6.50;;
66593;SDS011;53450;42.584;23.366;2023-03-01T15:14:53;7.15;;;5.95;;
66593;SDS011;53450;42.584;23.366;2023-03-01T15:17:33;7.57;;;5.50;;
66593;SDS011;53450;42.584;23.366;2023-03-01T15:20:03;13.37;;;9.70;;
66593;SDS011;53450;42.584;23.366;2023-03-01T15:22:43;13.20;;;9.03;;
66593;SDS011;53450;42.584;23.366;2023-03-01T15:25:19;9.00;;;7.23;;
66593;SDS011;53450;42.584;23.366;2023-03-01T15:28:17;8.30;;;6.30;;
66593;SDS011;53450;42.584;23.366;2023-03-01T15:30:45;5.37;;;4.87;;
66593;SDS011;53450;42.584;23.366;2023-03-01T15:33:18;9.55;;;4.43;;
66593;SDS011;53450;42.584;23.366;2023-03-01T15:35:45;7.87;;;5.33;;
66593;SDS011;53450;42.584;23.366;2023-03-01T15:38:25;6.63;;;5.53;;
66593;SDS011;53450;42.584;23.366;2023-03-01T15:41:04;4.87;;;4.30;;
66593;SDS011;53450;42.584;23.366;2023-03-01T15:43:50;4.70;;;3.30;;
66593;SDS011;53450;42.584;23.366;2023-03-01T15:46:29;6.73;;;4.63;;
66593;SDS011;53450;42.584;23.366;2023-03-01T15:49:04;4.90;;;4.40;;
66593;SDS011;53450;42.584;23.366;2023-03-01T15:51:35;7.22;;;4.47;;
66593;SDS011;53450;42.584;23.366;2023-03-01T15:54:24;3.95;;;3.40;;
66593;SDS011;53450;42.584;23.366;2023-03-01T15:56:49;4.77;;;4.20;;
66593;SDS011;53450;42.584;23.366;2023-03-01T15:59:16;6.70;;;4.40;;
66593;SDS011;53450;42.584;23.366;2023-03-01T16:01:43;5.20;;;4.50;;
66593;SDS011;53450;42.584;23.366;2023-03-01T16:04:10;5.87;;;4.20;;
66593;SDS011;53450;42.584;23.366;2023-03-01T16:06:41;5.50;;;3.88;;
66593;SDS011;53450;42.584;23.366;2023-03-01T16:09:07;4.47;;;3.53;;
66593;SDS011;53450;42.584;23.366;2023-03-01T16:11:33;8.10;;;4.10;;
66593;SDS011;53450;42.584;23.366;2023-03-01T16:14:01;8.73;;;5.87;;
66593;SDS011;53450;42.584;23.366;2023-03-01T16:16:27;10.77;;;7.00;;
66593;SDS011;53450;42.584;23.366;2023-03-01T16:18:53;5.83;;;4.90;;
66593;SDS011;53450;42.584;23.366;2023-03-01T16:21:21;10.03;;;6.23;;
66593;SDS011;53450;42.584;23.366;2023-03-01T16:23:48;10.13;;;7.20;;
66593;SDS011;53450;42.584;23.366;2023-03-01T16:26:14;8.37;;;4.87;;
66593;SDS011;53450;42.584;23.366;2023-03-01T16:28:41;6.47;;;4.80;;
66593;SDS011;53450;42.584;23.366;2023-03-01T16:31:07;4.10;;;3.60;;
66593;SDS011;53450;42.584;23.366;2023-03-01T16:33:34;6.07;;;5.17;;
66593;SDS011;53450;42.584;23.366;2023-03-01T16:36:10;10.07;;;6.10;;
66593;SDS011;53450;42.584;23.366;2023-03-01T16:38:37;8.83;;;5.40;;
66593;SDS011;53450;42.584;23.366;2023-03-01T16:41:04;6.20;;;4.70;;
66593;SDS011;53450;42.584;23.366;2023-03-01T16:43:30;14.20;;;7.23;;
66593;SDS011;53450;42.584;23.366;2023-03-01T16:45:56;5.67;;;4.33;;
66593;SDS011;53450;42.584;23.366;2023-03-01T16:48:23;9.57;;;3.97;;
66593;SDS011;53450;42.584;23.366;2023-03-01T16:50:56;5.60;;;4.90;;